Time;durP1;ratioP1;P1;durP2;ratioP2;P2;SDS_P1;SDS_P2;PMS_P1;PMS_P2;Temp;Humidity;BMP_temperature;BMP_pressure;BME280_temperature;BME280_humidity;BME280_pressure;Samples;Min_cycle;Max_cycle;Signal;HPM_P1;HPM_P2
2021/12/10 00:00:21;;;;;;;0.60;0.20;;;5.10;1.00;;;;;;5013128;28;20491;-66
2021/12/10 00:02:49;;;;;;;0.50;0.10;;;5.20;1.00;;;;;;5013842;28;20492;-67
2021/12/10 00:05:23;;;;;;;0.50;0.20;;;5.00;1.00;;;;;;5013099;28;20496;-66
2021/12/10 00:07:51;;;;;;;0.73;0.50;;;5.10;1.00;;;;;;5013698;28;20529;-68
2021/12/10 00:10:24;;;;;;;0.50;0.10;;;5.10;1.00;;;;;;5013247;28;20469;-66
2021/12/10 00:12:52;;;;;;;0.50;0.10;;;5.10;1.00;;;;;;5013970;28;20472;-66
2021/12/10 00:15:22;;;;;;;0.50;0.10;;;5.10;1.00;;;;;;5014391;28;20970;-66
2021/12/10 00:17:52;;;;;;;0.90;0.60;;;5.20;1.00;;;;;;5014223;28;20530;-64
2021/12/10 00:20:23;;;;;;;0.50;0.10;;;5.10;1.00;;;;;;5012950;28;20477;-65
2021/12/10 00:22:57;;;;;;;0.50;0.10;;;5.10;1.00;;;;;;5013166;28;20486;-65
2021/12/10 00:25:34;;;;;;;0.50;0.10;;;5.10;1.00;;;;;;5012626;28;20459;-66
2021/12/10 00:28:13;;;;;;;0.50;0.10;;;5.10;1.00;;;;;;5013231;28;20455;-65
2021/12/10 00:30:55;;;;;;;0.50;0.10;;;5.20;1.00;;;;;;5012674;28;20466;-65
2021/12/10 00:33:25;;;;;;;0.50;0.10;;;5.20;1.00;;;;;;5013051;28;20441;-67
2021/12/10 00:35:54;;;;;;;0.50;0.10;;;5.10;1.00;;;;;;5011895;28;20843;-64
2021/12/10 00:38:23;;;;;;;0.50;0.10;;;5.20;1.00;;;;;;5012265;28;20455;-66
2021/12/10 00:40:53;;;;;;;0.50;0.10;;;5.20;1.00;;;;;;5012223;28;20469;-68
2021/12/10 00:43:21;;;;;;;0.50;0.10;;;5.20;1.00;;;;;;5013922;28;20445;-68
2021/12/10 00:45:49;;;;;;;1.43;1.33;;;5.20;1.00;;;;;;5013742;28;20445;-64
2021/12/10 00:48:17;;;;;;;0.50;0.10;;;5.20;1.00;;;;;;5013728;28;20552;-67
2021/12/10 00:50:48;;;;;;;0.50;0.10;;;5.20;1.00;;;;;;5013023;28;20465;-67
2021/12/10 00:53:17;;;;;;;0.50;0.10;;;5.20;1.00;;;;;;5013080;28;20461;-67
2021/12/10 00:55:45;;;;;;;0.50;0.10;;;5.20;1.00;;;;;;5012477;28;20808;-67
2021/12/10 00:58:15;;;;;;;0.50;0.10;;;5.30;1.00;;;;;;5013150;28;20457;-68
2021/12/10 01:00:47;;;;;;;0.50;0.10;;;5.30;1.00;;;;;;5011811;28;20479;-67
2021/12/10 01:03:19;;;;;;;0.50;0.10;;;5.30;1.00;;;;;;5012736;28;20556;-65
2021/12/10 01:05:50;;;;;;;0.50;0.10;;;5.40;1.00;;;;;;5012327;28;20531;-65
2021/12/10 01:08:18;;;;;;;0.70;0.50;;;5.40;1.00;;;;;;5012958;28;20938;-65
2021/12/10 01:10:51;;;;;;;0.50;0.10;;;5.40;1.00;;;;;;5011981;28;20475;-66
2021/12/10 01:13:27;;;;;;;0.50;0.10;;;5.40;1.00;;;;;;5012167;28;20437;-66
2021/12/10 01:16:14;;;;;;;0.50;0.10;;;5.50;1.00;;;;;;5012611;28;20455;-65
2021/12/10 01:24:36;;;;;;;0.50;0.10;;;5.50;1.00;;;;;;5014162;28;20458;-65
2021/12/10 01:27:13;;;;;;;0.50;0.10;;;5.50;1.00;;;;;;5012082;28;20461;-65
2021/12/10 01:29:45;;;;;;;0.50;0.10;;;5.50;1.00;;;;;;5010817;28;20509;-66
2021/12/10 01:32:16;;;;;;;0.50;0.10;;;5.50;1.00;;;;;;5011860;28;20962;-65
2021/12/10 01:34:45;;;;;;;0.50;0.10;;;5.50;1.00;;;;;;5012670;28;20940;-65
2021/12/10 01:37:14;;;;;;;0.50;0.10;;;5.50;1.00;;;;;;5013408;28;20441;-65
2021/12/10 01:39:43;;;;;;;0.50;0.10;;;5.50;1.00;;;;;;5011998;28;20464;-65
2021/12/10 01:42:18;;;;;;;0.50;0.10;;;5.50;1.00;;;;;;4993333;28;20485;-66
2021/12/10 01:44:52;;;;;;;0.50;0.10;;;5.50;1.00;;;;;;5006677;28;20448;-65
2021/12/10 01:47:23;;;;;;;0.50;0.20;;;5.60;1.00;;;;;;5012919;28;20441;-66
2021/12/10 01:49:52;;;;;;;0.50;0.10;;;5.60;1.00;;;;;;5012674;28;20499;-68
2021/12/10 01:52:21;;;;;;;0.50;0.10;;;5.60;1.00;;;;;;5013564;28;20461;-69
2021/12/10 01:54:52;;;;;;;0.50;0.10;;;5.60;1.00;;;;;;5017232;28;20449;-66
2021/12/10 01:57:23;;;;;;;0.50;0.10;;;5.60;1.00;;;;;;5018813;28;20441;-67
2021/12/10 01:59:52;;;;;;;0.50;0.10;;;5.60;1.00;;;;;;5017932;28;20460;-66
2021/12/10 02:02:23;;;;;;;0.50;0.10;;;5.60;1.00;;;;;;5018002;28;20853;-67
2021/12/10 02:04:51;;;;;;;0.50;0.10;;;5.60;1.00;;;;;;5017997;28;20495;-65
2021/12/10 02:07:22;;;;;;;0.50;0.10;;;4.40;1.00;;;;;;5017977;28;20449;-65
2021/12/10 02:09:50;;;;;;;0.50;0.10;;;5.70;1.00;;;;;;5017237;28;20460;-65
2021/12/10 02:12:19;;;;;;;0.50;0.10;;;5.70;1.00;;;;;;5017615;28;20441;-68
2021/12/10 02:14:56;;;;;;;0.50;0.10;;;5.70;1.00;;;;;;5018040;28;20442;-66
2021/12/10 02:17:25;;;;;;;0.50;0.10;;;5.70;1.00;;;;;;5017995;28;20447;-66
2021/12/10 02:19:53;;;;;;;0.87;0.77;;;5.70;1.00;;;;;;5016803;28;20472;-66
2021/12/10 02:22:23;;;;;;;4.90;4.73;;;5.70;1.00;;;;;;5017622;28;20489;-66
2021/12/10 02:24:51;;;;;;;0.50;0.10;;;5.70;1.00;;;;;;5016746;28;20464;-66
2021/12/10 02:27:19;;;;;;;0.50;0.10;;;5.70;1.00;;;;;;5016645;28;20487;-67
2021/12/10 02:29:47;;;;;;;0.50;0.10;;;5.70;1.00;;;;;;5015507;28;20466;-66
2021/12/10 02:32:14;;;;;;;0.50;0.10;;;5.70;1.00;;;;;;5016305;28;20476;-68
2021/12/10 02:34:44;;;;;;;0.50;0.10;;;5.70;1.00;;;;;;5016319;28;20445;-66
2021/12/10 02:37:12;;;;;;;0.50;0.10;;;5.70;1.00;;;;;;5015702;28;20443;-67
2021/12/10 02:39:41;;;;;;;0.50;0.10;;;5.70;1.00;;;;;;5015164;28;20548;-67
2021/12/10 02:42:09;;;;;;;0.50;0.10;;;5.70;1.00;;;;;;5015130;28;20476;-67
2021/12/10 02:44:37;;;;;;;0.50;0.10;;;5.70;1.00;;;;;;5015279;28;20449;-68
2021/12/10 02:47:05;;;;;;;0.50;0.10;;;5.70;1.00;;;;;;5015721;28;20453;-66
2021/12/10 02:49:34;;;;;;;0.50;0.10;;;5.70;1.00;;;;;;5014927;28;20465;-68
2021/12/10 02:52:03;;;;;;;0.50;0.10;;;5.70;1.00;;;;;;4995906;28;20443;-67
2021/12/10 02:54:35;;;;;;;0.50;0.10;;;5.80;1.00;;;;;;4996228;28;20449;-66
2021/12/10 02:57:07;;;;;;;0.60;0.37;;;5.80;1.00;;;;;;4997550;28;20449;-67
2021/12/10 02:59:36;;;;;;;0.50;0.10;;;5.80;1.00;;;;;;4997807;28;20737;-68
2021/12/10 03:02:07;;;;;;;0.50;0.10;;;5.80;1.00;;;;;;4998329;28;20446;-65
2021/12/10 03:04:36;;;;;;;2.20;2.03;;;5.70;1.00;;;;;;4997929;28;20446;-65
2021/12/10 03:07:11;;;;;;;0.50;0.10;;;5.80;1.00;;;;;;4996694;28;20447;-65
2021/12/10 03:09:41;;;;;;;0.50;0.10;;;5.80;1.00;;;;;;4999299;28;20505;-67
2021/12/10 03:12:12;;;;;;;0.50;0.10;;;5.80;1.00;;;;;;5017755;28;20450;-65
2021/12/10 03:14:44;;;;;;;0.50;0.10;;;5.80;1.00;;;;;;5017454;28;20456;-65
2021/12/10 03:17:14;;;;;;;0.50;0.10;;;5.80;1.00;;;;;;5017587;28;20453;-66
2021/12/10 03:19:42;;;;;;;0.50;0.10;;;5.80;1.00;;;;;;5018235;28;20891;-66
2021/12/10 03:22:10;;;;;;;0.50;0.10;;;5.80;1.00;;;;;;5019278;28;20449;-68
2021/12/10 03:24:38;;;;;;;0.50;0.10;;;5.80;1.00;;;;;;5019880;28;20486;-65
2021/12/10 03:27:10;;;;;;;0.50;0.10;;;5.80;1.00;;;;;;5017533;28;20476;-65
2021/12/10 03:29:43;;;;;;;0.50;0.10;;;5.80;1.00;;;;;;5016864;28;20461;-65
2021/12/10 03:32:14;;;;;;;0.50;0.10;;;5.80;1.00;;;;;;5018650;28;20831;-65
2021/12/10 03:34:42;;;;;;;0.50;0.10;;;5.90;1.00;;;;;;5018679;28;20446;-65
2021/12/10 03:37:10;;;;;;;0.50;0.10;;;5.80;1.00;;;;;;5018647;28;20449;-67
2021/12/10 03:39:38;;;;;;;0.50;0.10;;;5.80;1.00;;;;;;5016242;28;20465;-66
2021/12/10 03:42:07;;;;;;;0.50;0.10;;;5.80;1.00;;;;;;5016018;28;20445;-65
2021/12/10 03:44:36;;;;;;;0.50;0.10;;;5.90;1.00;;;;;;5015349;28;20492;-65
2021/12/10 03:47:08;;;;;;;0.50;0.10;;;5.90;1.00;;;;;;5015261;28;20548;-66
2021/12/10 03:49:37;;;;;;;0.50;0.10;;;6.00;1.00;;;;;;5015292;28;20458;-66
2021/12/10 03:52:07;;;;;;;0.50;0.20;;;5.90;1.00;;;;;;4995642;28;20450;-67
2021/12/10 03:54:35;;;;;;;0.50;0.10;;;5.80;1.00;;;;;;4995441;28;20477;-67
2021/12/10 03:57:05;;;;;;;0.50;0.10;;;5.80;1.00;;;;;;4995629;28;20442;-67
2021/12/10 03:59:35;;;;;;;0.50;0.10;;;5.90;1.00;;;;;;4995405;28;20467;-64
2021/12/10 04:02:08;;;;;;;0.50;0.10;;;5.80;1.00;;;;;;5014484;28;20453;-65
2021/12/10 04:04:39;;;;;;;0.50;0.10;;;5.80;1.00;;;;;;5014069;28;20503;-66
2021/12/10 04:07:11;;;;;;;0.50;0.10;;;5.80;1.00;;;;;;5014284;28;20839;-66
2021/12/10 04:09:40;;;;;;;0.50;0.10;;;5.80;1.00;;;;;;5017519;28;21008;-67
2021/12/10 04:12:10;;;;;;;0.50;0.10;;;5.80;1.00;;;;;;5016913;28;20445;-65
2021/12/10 04:14:40;;;;;;;0.50;0.10;;;5.70;1.00;;;;;;5016973;28;20846;-67
2021/12/10 04:17:09;;;;;;;0.50;0.10;;;5.60;1.00;;;;;;5017141;28;20951;-65
2021/12/10 04:19:38;;;;;;;0.50;0.10;;;5.50;1.00;;;;;;5016988;28;20816;-69
2021/12/10 04:22:10;;;;;;;0.50;0.10;;;5.50;1.00;;;;;;5013101;28;20453;-68
2021/12/10 04:24:40;;;;;;;0.50;0.10;;;5.40;1.00;;;;;;5011816;28;21001;-68
2021/12/10 04:27:10;;;;;;;0.50;0.10;;;5.40;1.00;;;;;;5015741;28;20447;-69
2021/12/10 04:29:39;;;;;;;0.50;0.10;;;5.30;1.00;;;;;;5016052;28;20564;-68
2021/12/10 04:32:11;;;;;;;0.50;0.10;;;5.30;1.00;;;;;;5018890;28;20448;-68
2021/12/10 04:34:40;;;;;;;0.50;0.10;;;5.30;1.00;;;;;;5018029;28;20442;-66
2021/12/10 04:37:10;;;;;;;0.50;0.10;;;5.20;1.00;;;;;;5018102;28;20481;-69
2021/12/10 04:39:45;;;;;;;0.80;0.80;;;5.10;1.00;;;;;;5015173;28;20473;-68
2021/12/10 04:42:13;;;;;;;0.50;0.10;;;5.10;1.00;;;;;;5015293;28;20914;-67
2021/12/10 04:44:41;;;;;;;0.50;0.10;;;5.10;1.00;;;;;;5015592;28;20490;-68
2021/12/10 04:47:10;;;;;;;0.50;0.10;;;5.10;1.00;;;;;;5015626;28;20786;-66
2021/12/10 04:49:38;;;;;;;0.50;0.10;;;5.00;1.00;;;;;;5014490;28;21002;-66
2021/12/10 04:52:07;;;;;;;0.50;0.10;;;5.00;1.00;;;;;;5015408;28;20545;-66
2021/12/10 04:54:39;;;;;;;0.50;0.10;;;4.90;1.00;;;;;;5015422;28;20446;-67
2021/12/10 04:57:07;;;;;;;0.50;0.10;;;4.90;1.00;;;;;;5014553;28;20440;-66
2021/12/10 04:59:37;;;;;;;0.50;0.10;;;4.90;1.00;;;;;;5013979;28;20492;-67
2021/12/10 05:02:09;;;;;;;0.50;0.10;;;4.90;1.00;;;;;;5014831;28;20452;-67
2021/12/10 05:04:40;;;;;;;0.50;0.10;;;4.90;1.00;;;;;;5014816;28;20491;-67
2021/12/10 05:07:09;;;;;;;0.50;0.10;;;4.90;1.00;;;;;;5010368;28;20460;-68
2021/12/10 05:09:37;;;;;;;1.20;0.50;;;4.90;1.00;;;;;;5013539;28;20466;-68
2021/12/10 05:12:06;;;;;;;0.50;0.10;;;4.90;1.00;;;;;;5013834;28;20972;-68
2021/12/10 05:14:35;;;;;;;0.50;0.20;;;4.80;1.00;;;;;;5014098;28;20449;-66
2021/12/10 05:17:07;;;;;;;0.50;0.10;;;4.80;1.00;;;;;;5013527;28;20458;-66
2021/12/10 05:19:37;;;;;;;0.50;0.10;;;4.80;1.00;;;;;;5012833;28;20842;-69
2021/12/10 05:22:10;;;;;;;0.50;0.10;;;4.80;1.00;;;;;;5013652;28;20450;-68
2021/12/10 05:24:38;;;;;;;0.50;0.10;;;4.80;1.00;;;;;;5015014;28;20555;-68
2021/12/10 05:27:06;;;;;;;0.50;0.20;;;4.80;1.00;;;;;;5014356;28;20453;-68
2021/12/10 05:29:34;;;;;;;0.50;0.10;;;4.70;1.00;;;;;;5013848;28;20466;-67
2021/12/10 05:32:03;;;;;;;0.50;0.10;;;4.70;1.00;;;;;;5010870;28;20492;-67
2021/12/10 05:34:31;;;;;;;0.50;0.10;;;4.70;1.00;;;;;;5010104;28;21010;-67
2021/12/10 05:37:00;;;;;;;0.50;0.10;;;4.70;1.00;;;;;;5012520;28;20462;-66
2021/12/10 05:39:29;;;;;;;0.50;0.10;;;4.50;1.00;;;;;;5012382;28;20461;-67
2021/12/10 05:41:57;;;;;;;0.50;0.20;;;4.50;1.00;;;;;;5012172;28;20477;-68
2021/12/10 05:44:25;;;;;;;0.50;0.10;;;4.50;1.00;;;;;;5012486;28;20487;-68
2021/12/10 05:46:53;;;;;;;0.50;0.10;;;4.50;1.00;;;;;;5012385;28;20452;-67
2021/12/10 05:49:21;;;;;;;0.50;0.10;;;;;;;;;;5011808;28;20451;-67
2021/12/10 05:51:49;;;;;;;0.50;0.10;;;4.50;1.00;;;;;;5012110;28;20445;-69
2021/12/10 05:54:17;;;;;;;0.50;0.10;;;4.50;1.00;;;;;;5011770;28;20478;-67
2021/12/10 05:56:46;;;;;;;0.50;0.10;;;6.50;1.00;;;;;;5024418;28;20456;-67
2021/12/10 05:59:14;;;;;;;0.50;0.10;;;4.30;1.00;;;;;;5031705;28;20448;-69
2021/12/10 06:01:42;;;;;;;0.50;0.10;;;4.40;1.00;;;;;;5032223;28;20443;-68
2021/12/10 06:04:11;;;;;;;0.50;0.10;;;4.40;1.00;;;;;;5020650;28;20491;-68
2021/12/10 06:06:39;;;;;;;0.50;0.10;;;4.30;1.00;;;;;;5011787;28;20451;-68
2021/12/10 06:09:10;;;;;;;0.50;0.10;;;4.30;1.00;;;;;;5011411;28;20449;-68
2021/12/10 06:11:38;;;;;;;0.60;0.40;;;4.20;1.00;;;;;;5011772;28;20440;-67
2021/12/10 06:14:09;;;;;;;0.50;0.10;;;4.20;1.00;;;;;;5011505;28;20452;-69
2021/12/10 06:16:37;;;;;;;0.50;0.10;;;4.20;1.00;;;;;;5009368;28;21022;-67
2021/12/10 06:19:07;;;;;;;0.50;0.10;;;4.00;1.00;;;;;;5003520;28;20882;-69
2021/12/10 06:21:37;;;;;;;0.50;0.10;;;4.00;1.00;;;;;;5011515;28;20445;-69
2021/12/10 06:24:06;;;;;;;0.50;0.10;;;4.00;1.00;;;;;;5011478;28;20768;-69
2021/12/10 06:26:34;;;;;;;0.50;0.10;;;4.00;1.00;;;;;;5011756;28;20451;-69
2021/12/10 06:29:03;;;;;;;0.50;0.10;;;4.00;1.00;;;;;;5012075;28;20460;-67
2021/12/10 06:31:33;;;;;;;0.50;0.10;;;4.00;1.00;;;;;;5006276;28;20456;-69
2021/12/10 06:34:02;;;;;;;0.50;0.10;;;4.00;1.00;;;;;;5011130;28;20462;-69
2021/12/10 06:36:30;;;;;;;0.50;0.10;;;3.90;1.00;;;;;;5011400;28;20935;-70
2021/12/10 06:39:00;;;;;;;0.50;0.10;;;3.90;1.00;;;;;;5011577;28;20776;-67
2021/12/10 06:41:28;;;;;;;0.50;0.10;;;3.90;1.00;;;;;;4995143;28;20816;-69
2021/12/10 06:43:55;;;;;;;0.50;0.10;;;3.90;1.00;;;;;;5001892;28;20525;-69
2021/12/10 06:46:24;;;;;;;0.50;0.10;;;3.80;1.00;;;;;;5014920;28;20568;-70
2021/12/10 06:48:53;;;;;;;0.50;0.10;;;3.80;1.00;;;;;;5015087;28;20447;-70
2021/12/10 06:51:22;;;;;;;0.50;0.10;;;3.80;1.00;;;;;;5016879;28;20847;-67
2021/12/10 06:53:51;;;;;;;0.50;0.10;;;3.70;1.00;;;;;;5014413;28;20475;-67
2021/12/10 06:56:21;;;;;;;0.50;0.10;;;3.70;1.00;;;;;;5015013;28;20536;-69
2021/12/10 06:58:49;;;;;;;0.50;0.10;;;3.70;1.00;;;;;;5018821;28;20465;-69
2021/12/10 07:01:22;;;;;;;0.50;0.10;;;3.60;1.00;;;;;;5013008;28;20474;-66
2021/12/10 07:03:51;;;;;;;0.50;0.10;;;3.60;1.00;;;;;;5011631;28;20440;-68
2021/12/10 07:06:21;;;;;;;0.50;0.10;;;3.60;1.00;;;;;;5014499;28;20482;-69
2021/12/10 07:08:50;;;;;;;0.50;0.20;;;3.60;1.00;;;;;;5015216;28;20456;-68
2021/12/10 07:11:21;;;;;;;0.50;0.10;;;3.50;1.00;;;;;;5011027;28;20500;-67
2021/12/10 07:13:53;;;;;;;0.50;0.10;;;3.50;1.00;;;;;;5019626;28;20439;-69
2021/12/10 07:16:22;;;;;;;0.50;0.10;;;3.50;1.00;;;;;;5015242;28;20512;-68
2021/12/10 07:18:52;;;;;;;0.50;0.10;;;3.50;1.00;;;;;;5018096;28;20460;-69
2021/12/10 07:21:21;;;;;;;0.50;0.10;;;3.60;1.00;;;;;;5013928;28;20481;-69
2021/12/10 07:23:50;;;;;;;0.50;0.10;;;3.50;1.00;;;;;;5011275;28;20462;-68
2021/12/10 07:26:18;;;;;;;0.50;0.10;;;3.50;1.00;;;;;;5014375;28;20984;-68
2021/12/10 07:28:46;;;;;;;0.50;0.10;;;3.60;1.00;;;;;;5014500;28;20445;-68
2021/12/10 07:31:15;;;;;;;0.50;0.10;;;3.50;1.00;;;;;;5014012;28;20480;-67
2021/12/10 07:33:44;;;;;;;0.50;0.10;;;3.50;1.00;;;;;;5011079;28;20447;-68
2021/12/10 07:36:12;;;;;;;0.50;0.10;;;3.50;1.00;;;;;;5010242;28;20442;-69
2021/12/10 07:38:42;;;;;;;0.50;0.10;;;3.40;1.00;;;;;;5015599;28;20444;-67
2021/12/10 07:41:11;;;;;;;0.50;0.10;;;3.40;1.00;;;;;;5014898;28;20925;-67
2021/12/10 07:43:40;;;;;;;0.50;0.10;;;3.40;1.00;;;;;;5017172;28;20953;-67
2021/12/10 07:46:08;;;;;;;0.50;0.10;;;3.40;1.00;;;;;;5015485;28;21008;-68
2021/12/10 07:48:36;;;;;;;0.50;0.10;;;3.40;1.00;;;;;;5014148;28;20449;-68
2021/12/10 07:51:09;;;;;;;0.50;0.10;;;3.40;1.00;;;;;;5010469;28;20470;-68
2021/12/10 07:53:40;;;;;;;0.50;0.10;;;3.40;1.00;;;;;;5013518;28;20446;-68
2021/12/10 07:56:11;;;;;;;0.50;0.10;;;3.40;1.00;;;;;;4995991;28;20810;-68
2021/12/10 07:58:42;;;;;;;0.50;0.10;;;3.40;1.00;;;;;;4994194;28;20446;-68
2021/12/10 08:01:14;;;;;;;0.50;0.10;;;3.40;1.00;;;;;;5012071;28;20524;-70
2021/12/10 08:03:43;;;;;;;0.50;0.10;;;3.40;1.00;;;;;;5013740;28;20456;-68
2021/12/10 08:06:12;;;;;;;0.50;0.10;;;3.40;1.00;;;;;;5013363;28;20480;-68
2021/12/10 08:08:40;;;;;;;0.50;0.10;;;;;;;;;;5013921;28;20446;-69
2021/12/10 08:11:10;;;;;;;0.50;0.10;;;;;;;;;;5013312;28;20477;-68
2021/12/10 08:13:39;;;;;;;0.50;0.10;;;3.40;1.00;;;;;;5013542;28;20457;-68
2021/12/10 08:16:07;;;;;;;0.50;0.10;;;3.50;1.00;;;;;;5013270;28;20465;-69
2021/12/10 08:18:35;;;;;;;0.50;0.10;;;3.50;1.00;;;;;;5015318;28;20543;-69
2021/12/10 08:21:04;;;;;;;0.50;0.10;;;;;;;;;;5012713;28;20488;-68
2021/12/10 08:23:33;;;;;;;8.03;4.90;;;3.60;1.00;;;;;;5013276;28;20464;-69
2021/12/10 08:26:01;;;;;;;0.50;0.10;;;3.60;1.00;;;;;;5012573;28;20481;-68
2021/12/10 08:28:33;;;;;;;0.50;0.10;;;3.70;1.00;;;;;;5001726;28;20457;-68
2021/12/10 08:31:02;;;;;;;0.50;0.20;;;3.70;1.00;;;;;;5011268;28;21015;-67
2021/12/10 08:33:32;;;;;;;0.50;0.10;;;3.90;1.00;;;;;;5003768;28;20438;-68
2021/12/10 08:36:04;;;;;;;0.50;0.10;;;3.90;1.00;;;;;;5012041;28;20439;-69
2021/12/10 08:38:33;;;;;;;0.50;0.10;;;3.80;1.00;;;;;;5008090;28;20839;-67
2021/12/10 08:41:06;;;;;;;0.50;0.10;;;3.90;1.00;;;;;;5006263;28;20487;-68
2021/12/10 08:43:36;;;;;;;0.50;0.10;;;3.90;1.00;;;;;;5012848;28;20445;-70
2021/12/10 08:46:05;;;;;;;0.50;0.10;;;3.90;1.00;;;;;;5012037;28;20479;-69
2021/12/10 08:48:35;;;;;;;0.50;0.10;;;3.90;1.00;;;;;;5009538;28;20886;-69
2021/12/10 08:51:08;;;;;;;0.50;0.10;;;5.60;1.00;;;;;;5008592;28;20498;-68
2021/12/10 08:53:37;;;;;;;0.50;0.10;;;4.00;1.00;;;;;;5009775;28;20443;-67
2021/12/10 08:56:05;;;;;;;0.50;0.10;;;4.10;1.00;;;;;;5023172;28;20456;-67
2021/12/10 08:58:35;;;;;;;0.50;0.10;;;4.10;1.00;;;;;;5016332;28;20513;-67
2021/12/10 09:01:08;;;;;;;0.50;0.10;;;4.10;1.00;;;;;;5010162;28;20567;-70
2021/12/10 09:03:48;;;;;;;0.50;0.10;;;;;;;;;;5011016;28;20439;-70
2021/12/10 09:06:17;;;;;;;0.50;0.10;;;5.10;1.00;;;;;;4999501;28;20489;-68
2021/12/10 09:08:46;;;;;;;0.50;0.10;;;4.20;1.00;;;;;;5008203;28;21005;-70
2021/12/10 09:11:15;;;;;;;0.50;0.10;;;4.10;1.00;;;;;;5009383;28;20464;-70
2021/12/10 09:13:50;;;;;;;0.50;0.10;;;4.10;1.00;;;;;;5006686;28;20466;-71
2021/12/10 09:16:25;;;;;;;0.50;0.10;;;4.10;1.00;;;;;;5009321;28;20456;-70
2021/12/10 09:18:57;;;;;;;0.50;0.10;;;4.10;1.00;;;;;;5009323;28;20900;-71
2021/12/10 09:21:25;;;;;;;0.50;0.10;;;4.10;1.00;;;;;;5007245;28;20980;-70
2021/12/10 09:23:57;;;;;;;0.50;0.10;;;3.90;1.00;;;;;;5008732;28;20440;-70
2021/12/10 09:26:27;;;;;;;0.50;0.10;;;4.30;1.00;;;;;;5007942;28;20497;-69
2021/12/10 09:28:59;;;;;;;0.50;0.10;;;4.30;1.00;;;;;;5006828;28;20459;-67
2021/12/10 09:31:27;;;;;;;0.50;0.10;;;4.30;1.00;;;;;;5005248;28;20458;-68
2021/12/10 09:33:57;;;;;;;0.50;0.10;;;4.30;1.00;;;;;;5004317;28;20437;-69
2021/12/10 09:36:27;;;;;;;0.50;0.10;;;4.30;1.00;;;;;;5005567;28;20480;-70
2021/12/10 09:38:56;;;;;;;0.50;0.10;;;4.30;1.00;;;;;;5008997;28;20440;-69
2021/12/10 09:41:24;;;;;;;0.50;0.10;;;4.40;1.00;;;;;;5008663;28;20467;-69
2021/12/10 09:43:53;;;;;;;0.50;0.10;;;4.40;1.00;;;;;;5007628;28;20523;-69
2021/12/10 09:46:22;;;;;;;0.50;0.10;;;;;;;;;;5007953;28;20471;-69
2021/12/10 09:48:51;;;;;;;0.50;0.10;;;4.50;1.00;;;;;;5008852;28;20526;-69
2021/12/10 09:51:24;;;;;;;0.50;0.10;;;4.50;1.00;;;;;;5027048;28;20539;-70
2021/12/10 09:53:55;;;;;;;0.50;0.10;;;4.60;1.00;;;;;;4995907;28;20445;-71
2021/12/10 09:56:24;;;;;;;0.50;0.10;;;4.70;1.00;;;;;;4993919;28;20458;-69
2021/12/10 09:58:53;;;;;;;0.50;0.10;;;;;;;;;;5002986;28;20455;-71
2021/12/10 10:01:25;;;;;;;0.50;0.10;;;4.60;1.00;;;;;;5012385;28;20475;-70
2021/12/10 10:04:00;;;;;;;0.50;0.10;;;4.60;1.00;;;;;;5011440;28;20433;-70
2021/12/10 10:06:31;;;;;;;0.50;0.10;;;4.50;1.00;;;;;;5009819;28;21051;-70
2021/12/10 10:08:59;;;;;;;0.50;0.10;;;5.90;1.00;;;;;;5010767;28;20532;-69
2021/12/10 10:11:44;;;;;;;0.50;0.10;;;4.60;1.00;;;;;;5022451;28;20451;-72
2021/12/10 10:14:13;;;;;;;0.50;0.10;;;4.60;1.00;;;;;;5010614;28;20887;-69
2021/12/10 10:16:44;;;;;;;0.50;0.10;;;4.60;1.00;;;;;;5015372;28;20532;-70
2021/12/10 10:19:16;;;;;;;0.50;0.10;;;4.70;1.00;;;;;;5015232;28;20474;-69
2021/12/10 10:21:48;;;;;;;0.50;0.10;;;4.70;1.00;;;;;;5000418;28;20474;-70
2021/12/10 10:24:18;;;;;;;0.50;0.10;;;4.70;1.00;;;;;;4999275;28;20550;-69
2021/12/10 10:26:49;;;;;;;0.50;0.10;;;4.70;1.00;;;;;;5008314;28;20927;-71
2021/12/10 10:29:20;;;;;;;0.50;0.10;;;4.70;1.00;;;;;;5007052;28;20441;-68
2021/12/10 10:31:55;;;;;;;0.50;0.10;;;4.70;1.00;;;;;;4999273;28;20979;-68
2021/12/10 10:34:33;;;;;;;0.50;0.10;;;4.80;1.00;;;;;;5001153;28;20460;-71
2021/12/10 10:37:02;;;;;;;0.50;0.10;;;4.80;1.00;;;;;;5006428;28;20952;-70
2021/12/10 10:39:34;;;;;;;0.50;0.10;;;4.90;1.00;;;;;;5002391;28;20550;-70
2021/12/10 10:42:04;;;;;;;0.50;0.10;;;4.90;1.00;;;;;;5012106;28;20463;-69
2021/12/10 10:44:53;;;;;;;0.50;0.10;;;4.90;1.00;;;;;;5003502;28;20438;-70
2021/12/10 10:47:24;;;;;;;0.50;0.10;;;4.90;1.00;;;;;;5002480;28;21014;-70
2021/12/10 10:49:55;;;;;;;0.50;0.10;;;5.00;1.00;;;;;;5010963;28;20464;-69
2021/12/10 10:52:29;;;;;;;0.50;0.10;;;5.00;1.00;;;;;;4999596;28;20446;-70
2021/12/10 10:55:00;;;;;;;0.50;0.10;;;5.00;1.00;;;;;;5011953;28;20454;-68
2021/12/10 10:57:32;;;;;;;0.50;0.10;;;5.10;1.00;;;;;;5002436;28;20766;-70
2021/12/10 11:00:14;;;;;;;0.50;0.10;;;5.10;1.00;;;;;;5012004;28;20467;-66
2021/12/10 11:02:51;;;;;;;0.50;0.10;;;5.20;1.00;;;;;;5002359;28;20448;-70
2021/12/10 11:05:22;;;;;;;0.50;0.10;;;5.20;1.00;;;;;;5005999;28;20949;-69
2021/12/10 11:07:53;;;;;;;0.50;0.10;;;5.20;1.00;;;;;;5012275;28;20484;-70
2021/12/10 11:10:27;;;;;;;0.50;0.10;;;5.20;1.00;;;;;;5010526;28;20470;-69
2021/12/10 11:13:08;;;;;;;2.73;2.63;;;5.10;1.00;;;;;;5003565;28;20444;-70
2021/12/10 11:15:38;;;;;;;0.50;0.10;;;5.10;1.00;;;;;;5000080;28;20773;-70
2021/12/10 11:18:15;;;;;;;0.50;0.10;;;5.10;1.00;;;;;;5010657;28;20798;-70
2021/12/10 11:20:45;;;;;;;0.50;0.10;;;5.10;1.00;;;;;;5000883;28;20477;-70
2021/12/10 11:23:15;;;;;;;0.50;0.10;;;5.10;1.00;;;;;;5011292;28;20456;-68
2021/12/10 11:25:47;;;;;;;0.50;0.10;;;3.70;1.00;;;;;;4998040;28;20524;-69
2021/12/10 11:28:18;;;;;;;0.50;0.20;;;5.20;1.00;;;;;;5014607;28;20576;-71
2021/12/10 11:30:49;;;;;;;0.50;0.10;;;5.20;1.00;;;;;;5014514;28;20461;-69
2021/12/10 11:33:20;;;;;;;0.50;0.10;;;5.20;1.00;;;;;;5013583;28;20440;-70
2021/12/10 11:35:53;;;;;;;0.50;0.13;;;5.20;1.00;;;;;;5013104;28;20457;-70
2021/12/10 11:38:24;;;;;;;0.50;0.10;;;5.30;1.00;;;;;;4997902;28;20521;-70
2021/12/10 11:40:54;;;;;;;0.50;0.10;;;5.30;1.00;;;;;;5013258;28;20837;-69
2021/12/10 11:43:45;;;;;;;0.50;0.10;;;5.30;1.00;;;;;;5001072;28;20491;-69
2021/12/10 11:46:44;;;;;;;0.50;0.10;;;5.40;1.00;;;;;;5010326;28;20438;-70
2021/12/10 11:49:19;;;;;;;0.50;0.10;;;5.30;1.00;;;;;;5004233;28;20482;-68
2021/12/10 11:51:50;;;;;;;0.50;0.10;;;5.30;1.00;;;;;;4997778;28;20452;-69
2021/12/10 11:54:22;;;;;;;0.50;0.10;;;5.30;1.00;;;;;;4997532;28;20495;-70
2021/12/10 11:56:55;;;;;;;0.50;0.10;;;5.30;1.00;;;;;;5013659;28;20460;-70
2021/12/10 11:59:31;;;;;;;0.50;0.10;;;5.40;1.00;;;;;;5011147;28;20870;-71
2021/12/10 12:02:02;;;;;;;0.50;0.10;;;5.40;1.00;;;;;;5012839;28;20441;-71
2021/12/10 12:04:39;;;;;;;0.50;0.10;;;5.40;1.00;;;;;;4999267;28;20434;-68
2021/12/10 12:07:35;;;;;;;0.50;0.10;;;5.40;1.00;;;;;;5004345;28;20942;-68
2021/12/10 12:10:15;;;;;;;0.50;0.10;;;5.40;1.00;;;;;;5009928;28;20500;-68
2021/12/10 12:12:46;;;;;;;0.50;0.10;;;5.40;1.00;;;;;;4999435;28;20441;-68
2021/12/10 12:15:19;;;;;;;0.50;0.10;;;5.40;1.00;;;;;;5009020;28;20808;-67
2021/12/10 12:17:49;;;;;;;0.50;0.10;;;5.40;1.00;;;;;;5010789;28;20454;-68
2021/12/10 12:20:35;;;;;;;0.50;0.10;;;5.40;1.00;;;;;;5006686;28;21001;-70
2021/12/10 12:25:58;;;;;;;0.50;0.10;;;5.40;1.00;;;;;;5013637;28;20488;-67
2021/12/10 12:28:32;;;;;;;0.50;0.10;;;5.40;1.00;;;;;;5012323;28;20988;-67
2021/12/10 12:31:23;;;;;;;0.50;0.10;;;5.40;1.00;;;;;;5014240;28;20536;-65
2021/12/10 12:34:01;;;;;;;0.50;0.10;;;5.40;1.00;;;;;;5013643;28;20450;-70
2021/12/10 12:36:35;;;;;;;0.50;0.10;;;5.40;1.00;;;;;;5013281;28;20456;-69
2021/12/10 12:39:07;;;;;;;0.50;0.10;;;5.40;1.00;;;;;;5012562;28;20536;-68
2021/12/10 12:41:38;;;;;;;0.50;0.10;;;5.40;1.00;;;;;;5013510;28;20453;-67
2021/12/10 12:44:22;;;;;;;0.50;0.10;;;5.40;1.00;;;;;;5012938;28;20498;-67
2021/12/10 12:47:14;;;;;;;0.50;0.10;;;5.40;1.00;;;;;;5012914;28;20524;-67
2021/12/10 12:49:57;;;;;;;0.50;0.10;;;5.50;1.00;;;;;;5012242;28;20572;-68
2021/12/10 12:52:30;;;;;;;0.50;0.10;;;5.50;1.00;;;;;;5012863;28;20503;-67
2021/12/10 12:55:30;;;;;;;0.50;0.10;;;5.50;1.00;;;;;;5012664;28;20504;-68
2021/12/10 12:58:13;;;;;;;0.50;0.10;;;5.50;1.00;;;;;;5013258;28;20946;-67
2021/12/10 13:01:10;;;;;;;0.50;0.10;;;5.50;1.00;;;;;;5011130;28;20466;-66
2021/12/10 13:03:43;;;;;;;0.50;0.10;;;5.50;1.00;;;;;;5009565;28;20495;-68
2021/12/10 13:06:34;;;;;;;0.50;0.10;;;5.50;1.00;;;;;;5011211;28;20456;-68
2021/12/10 13:09:07;;;;;;;0.50;0.10;;;5.50;1.00;;;;;;5015436;28;20480;-68
2021/12/10 13:11:50;;;;;;;0.50;0.10;;;5.50;1.00;;;;;;5012892;28;20450;-66
2021/12/10 13:14:21;;;;;;;0.50;0.10;;;5.50;1.00;;;;;;5013116;28;20441;-69
2021/12/10 13:16:55;;;;;;;0.50;0.10;;;5.50;1.00;;;;;;5013054;28;20552;-68
2021/12/10 13:19:31;;;;;;;0.50;0.10;;;5.50;1.00;;;;;;5012667;28;20951;-67
2021/12/10 13:22:05;;;;;;;0.50;0.10;;;5.40;1.00;;;;;;5012757;28;20473;-66
2021/12/10 13:24:35;;;;;;;0.50;0.10;;;5.40;1.00;;;;;;5012305;28;20454;-66
2021/12/10 13:27:03;;;;;;;0.50;0.10;;;5.40;1.00;;;;;;5012676;28;20456;-68
2021/12/10 13:29:31;;;;;;;0.50;0.10;;;5.40;1.00;;;;;;5012647;28;20512;-66
2021/12/10 13:32:01;;;;;;;0.50;0.10;;;5.40;1.00;;;;;;5012532;28;20820;-67
2021/12/10 13:34:29;;;;;;;0.50;0.10;;;5.40;1.00;;;;;;5012425;28;20443;-66
2021/12/10 13:36:58;;;;;;;0.50;0.10;;;5.40;1.00;;;;;;5011663;28;20547;-68
2021/12/10 13:39:26;;;;;;;0.50;0.10;;;5.40;1.00;;;;;;5011779;28;20444;-69